Time;durP1;ratioP1;P1;durP2;ratioP2;P2;SDS_P1;SDS_P2;PMS_P1;PMS_P2;Temp;Humidity;BMP_temperature;BMP_pressure;BME280_temperature;BME280_humidity;BME280_pressure;Samples;Min_cycle;Max_cycle;Signal;HPM_P1;HPM_P2
2022/12/08 00:00:18;;;;;;;23.52;15.88;;;;;;;2.63;100.00;100290.25;695300;28;1438;-66
2022/12/08 00:00:38;;;;;;;25.50;15.43;;;;;;;2.63;100.00;100285.09;695827;28;1098;-66
2022/12/08 00:01:07;;;;;;;25.70;16.03;;;;;;;2.59;100.00;100288.44;696756;28;4458;-66
2022/12/08 00:01:30;;;;;;;23.30;15.90;;;;;;;2.60;100.00;100287.63;697910;28;1355;-66
2022/12/08 00:01:50;;;;;;;24.60;15.43;;;;;;;2.67;100.00;100286.91;694864;28;1050;-66
2022/12/08 00:02:12;;;;;;;27.57;16.60;;;;;;;2.69;100.00;100283.53;694175;28;1153;-66
2022/12/08 00:02:32;;;;;;;24.38;15.90;;;;;;;2.79;100.00;100289.75;695679;28;1255;-66
2022/12/08 00:02:53;;;;;;;23.53;15.20;;;;;;;2.68;100.00;100289.50;693869;28;1220;-66
2022/12/08 00:03:13;;;;;;;24.77;16.48;;;;;;;2.71;100.00;100288.72;697243;28;1922;-66
2022/12/08 00:03:34;;;;;;;24.13;16.03;;;;;;;2.66;100.00;100285.16;695224;28;1311;-66
2022/12/08 00:03:58;;;;;;;25.00;16.00;;;;;;;2.63;100.00;100287.69;698900;28;4501;-66
2022/12/08 00:04:18;;;;;;;25.13;15.82;;;;;;;2.63;100.00;100285.09;698044;28;928;-66
2022/12/08 00:09:24;;;;;;;23.65;15.57;;;;;;;2.60;100.00;100283.31;697365;28;1050;-66
2022/12/08 00:09:44;;;;;;;23.63;15.60;;;;;;;2.75;100.00;100287.94;698203;28;1226;-65
2022/12/08 00:10:06;;;;;;;22.85;15.15;;;;;;;2.78;100.00;100287.13;698167;28;4354;-66
2022/12/08 00:10:26;;;;;;;23.00;14.93;;;;;;;2.75;100.00;100285.34;697854;28;1167;-66
2022/12/08 00:10:46;;;;;;;21.60;14.93;;;;;;;2.71;100.00;100287.03;698044;28;1241;-66
2022/12/08 00:11:12;;;;;;;22.08;15.02;;;;;;;2.68;100.00;100283.50;697559;28;1193;-66
2022/12/08 00:11:33;;;;;;;21.88;15.00;;;;;;;2.66;100.00;100286.03;694662;28;907;-66
2022/12/08 00:11:58;;;;;;;22.37;15.20;;;;;;;2.61;100.00;100276.47;694733;28;959;-66
2022/12/08 00:12:18;;;;;;;22.70;14.82;;;;;;;2.59;100.00;100284.19;695400;28;1063;-66
2022/12/08 00:12:38;;;;;;;23.55;14.85;;;;;;;2.57;100.00;100278.09;695003;28;1027;-66
2022/12/08 00:12:59;;;;;;;22.33;15.10;;;;;;;2.56;100.00;100273.75;694983;28;4458;-66
2022/12/08 00:13:19;;;;;;;23.40;15.02;;;;;;;2.54;100.00;100284.06;695286;28;1306;-66
2022/12/08 00:13:39;;;;;;;23.37;15.10;;;;;;;2.53;100.00;100278.88;697596;28;1505;-66
2022/12/08 00:14:00;;;;;;;24.33;16.08;;;;;;;2.50;100.00;100282.25;697388;28;1110;-66
2022/12/08 00:14:35;;;;;;;28.80;17.40;;;;;;;2.50;100.00;100281.38;697426;28;1140;-65
2022/12/08 00:14:55;;;;;;;23.75;15.50;;;;;;;2.51;100.00;100280.56;696934;28;1267;-66
2022/12/08 00:15:16;;;;;;;21.08;14.77;;;;;;;2.52;100.00;100282.28;698777;28;1028;-66
2022/12/08 00:15:36;;;;;;;22.97;14.37;;;;;;;2.52;100.00;100287.44;697287;28;1402;-66
2022/12/08 00:15:59;;;;;;;23.08;16.08;;;;;;;2.52;100.00;100280.59;696972;28;4472;-66
2022/12/08 00:16:20;;;;;;;23.95;15.43;;;;;;;2.55;100.00;100282.38;697867;28;1047;-66
2022/12/08 00:16:40;;;;;;;21.87;15.63;;;;;;;2.53;100.00;100278.88;697366;28;1099;-66
2022/12/08 00:17:02;;;;;;;23.48;15.50;;;;;;;2.53;100.00;100282.34;697622;28;1004;-66
2022/12/08 00:17:22;;;;;;;24.00;15.50;;;;;;;2.53;100.00;100273.69;698410;28;1047;-66
2022/12/08 00:17:43;;;;;;;23.40;15.10;;;;;;;2.53;100.00;100276.28;697473;28;1345;-66
2022/12/08 00:18:04;;;;;;;23.87;15.03;;;;;;;2.51;100.00;100276.25;698680;28;1185;-66
2022/12/08 00:18:24;;;;;;;23.73;15.90;;;;;;;2.50;100.00;100277.09;698126;28;1230;-66
2022/12/08 00:18:45;;;;;;;24.37;15.97;;;;;;;2.53;100.00;100281.44;696963;28;1241;-66
2022/12/08 00:19:05;;;;;;;22.77;15.75;;;;;;;2.56;100.00;100281.50;696699;28;4358;-66
2022/12/08 00:19:26;;;;;;;21.70;15.43;;;;;;;2.55;100.00;100274.63;699511;28;1010;-66
2022/12/08 00:19:47;;;;;;;21.95;15.32;;;;;;;2.55;100.00;100279.78;697995;28;1146;-66
2022/12/08 00:20:07;;;;;;;22.05;15.15;;;;;;;2.54;100.00;100273.72;696969;28;4034;-66
2022/12/08 00:20:28;;;;;;;23.48;15.93;;;;;;;2.55;100.00;100274.63;698484;28;1060;-66
2022/12/08 00:20:54;;;;;;;23.33;16.37;;;;;;;2.53;100.00;100271.13;698955;28;1055;-66
2022/12/08 00:21:15;;;;;;;23.50;15.38;;;;;;;2.53;100.00;100276.28;698920;28;1014;-66
2022/12/08 00:21:35;;;;;;;24.03;15.73;;;;;;;2.59;100.00;100273.84;697187;28;1111;-66
2022/12/08 00:21:56;;;;;;;26.58;16.33;;;;;;;2.62;100.00;100271.31;699205;28;4492;-66
2022/12/08 00:22:16;;;;;;;27.37;16.23;;;;;;;2.64;100.00;100268.78;697556;28;1102;-66
2022/12/08 00:22:36;;;;;;;24.23;15.70;;;;;;;2.62;100.00;100271.31;698269;28;1087;-66
2022/12/08 00:22:57;;;;;;;22.47;15.07;;;;;;;2.61;100.00;100267.00;698692;28;1147;-66
2022/12/08 00:23:17;;;;;;;22.08;14.35;;;;;;;2.60;100.00;100266.97;696539;28;1929;-66
2022/12/08 00:23:37;;;;;;;20.73;14.40;;;;;;;2.58;100.00;100268.66;696957;28;1241;-66
2022/12/08 00:23:58;;;;;;;21.73;15.27;;;;;;;2.55;100.00;100272.03;697916;28;1067;-66
2022/12/08 00:24:19;;;;;;;23.40;15.95;;;;;;;2.53;100.00;100265.97;697378;28;1118;-66
2022/12/08 00:24:45;;;;;;;25.70;16.08;;;;;;;2.51;100.00;100268.50;696409;28;1015;-66
2022/12/08 00:25:06;;;;;;;23.83;15.43;;;;;;;2.50;100.00;100264.19;697388;28;4486;-66
2022/12/08 00:25:26;;;;;;;23.35;15.43;;;;;;;2.54;100.00;100265.13;698933;28;1113;-66
2022/12/08 00:25:46;;;;;;;23.87;15.67;;;;;;;2.55;100.00;100264.31;698528;28;1137;-66
2022/12/08 00:26:07;;;;;;;22.70;15.52;;;;;;;2.55;100.00;100266.88;696883;28;908;-66
2022/12/08 00:26:27;;;;;;;23.23;15.67;;;;;;;2.55;100.00;100270.31;697309;28;967;-66
2022/12/08 00:26:48;;;;;;;22.52;15.73;;;;;;;2.55;100.00;100264.31;699727;28;777;-66
2022/12/08 00:27:11;;;;;;;22.48;14.95;;;;;;;2.54;100.00;100263.41;694963;28;968;-66
2022/12/08 00:27:31;;;;;;;24.52;15.77;;;;;;;2.54;100.00;100268.56;699343;28;2096;-66
2022/12/08 00:27:51;;;;;;;26.25;16.08;;;;;;;2.56;100.00;100266.03;695065;28;4343;-66
2022/12/08 00:28:12;;;;;;;24.70;15.60;;;;;;;2.62;100.00;100266.16;693165;28;1278;-66
2022/12/08 00:28:33;;;;;;;24.20;15.80;;;;;;;2.65;100.00;100266.22;693176;28;1210;-66
2022/12/08 00:28:53;;;;;;;23.35;15.07;;;;;;;2.63;100.00;100262.75;693819;28;1202;-66
2022/12/08 00:29:14;;;;;;;20.85;14.55;;;;;;;2.63;100.00;100267.91;695323;28;1368;-67
2022/12/08 00:29:35;;;;;;;21.77;15.07;;;;;;;2.63;100.00;100269.59;693176;28;1504;-66
2022/12/08 00:29:55;;;;;;;25.55;15.70;;;;;;;2.61;100.00;100268.72;696410;28;1063;-66
2022/12/08 00:30:15;;;;;;;23.17;14.97;;;;;;;2.59;100.00;100266.09;697225;28;1046;-66
2022/12/08 00:30:38;;;;;;;22.35;15.23;;;;;;;2.59;100.00;100267.81;698177;28;975;-66
2022/12/08 00:30:59;;;;;;;23.42;15.77;;;;;;;2.56;100.00;100268.59;696153;28;4297;-66
2022/12/08 00:31:20;;;;;;;23.10;15.77;;;;;;;2.56;100.00;100271.19;696792;28;1091;-66
2022/12/08 00:31:40;;;;;;;22.47;15.40;;;;;;;2.56;100.00;100263.44;697215;28;1083;-65
2022/12/08 00:32:01;;;;;;;24.52;15.65;;;;;;;2.55;100.00;100266.88;696450;28;1449;-66
2022/12/08 00:32:21;;;;;;;23.30;15.50;;;;;;;2.53;100.00;100263.38;697456;28;1255;-66
2022/12/08 00:32:41;;;;;;;21.80;15.00;;;;;;;2.53;100.00;100268.53;698842;28;1319;-66
2022/12/08 00:33:01;;;;;;;21.30;15.33;;;;;;;2.53;100.00;100263.38;698792;28;1188;-66
2022/12/08 00:33:22;;;;;;;23.27;15.23;;;;;;;2.51;100.00;100271.09;698418;28;1363;-66
2022/12/08 00:33:43;;;;;;;23.33;14.95;;;;;;;2.51;100.00;100267.66;701014;28;1051;-66
2022/12/08 00:34:03;;;;;;;24.83;15.75;;;;;;;2.50;100.00;100271.06;699259;28;4700;-66
2022/12/08 00:34:23;;;;;;;25.57;16.43;;;;;;;2.49;100.00;100270.19;699419;28;1208;-66
2022/12/08 00:34:44;;;;;;;25.42;15.88;;;;;;;2.50;100.00;100263.31;696162;28;1424;-66
2022/12/08 00:35:04;;;;;;;25.10;15.87;;;;;;;2.50;100.00;100266.75;697005;28;1039;-66
2022/12/08 00:35:25;;;;;;;23.88;15.50;;;;;;;2.51;100.00;100267.66;696467;28;1320;-66
2022/12/08 00:35:46;;;;;;;23.83;15.40;;;;;;;2.50;100.00;100260.75;694443;28;1332;-66
2022/12/08 00:36:08;;;;;;;23.40;16.17;;;;;;;2.51;100.00;100267.66;693845;28;1221;-66
2022/12/08 00:36:29;;;;;;;25.17;16.13;;;;;;;2.49;100.00;100267.63;691048;28;1296;-66
2022/12/08 00:36:49;;;;;;;26.10;16.00;;;;;;;2.47;100.00;100258.97;696688;28;976;-65
2022/12/08 00:37:10;;;;;;;27.30;16.10;;;;;;;2.47;100.00;100265.84;695334;28;4270;-66
2022/12/08 00:37:30;;;;;;;26.93;15.63;;;;;;;2.51;100.00;100267.66;695755;28;1171;-66
2022/12/08 00:37:50;;;;;;;24.27;15.47;;;;;;;2.51;100.00;100262.50;698990;28;1214;-66
2022/12/08 00:38:11;;;;;;;23.27;15.33;;;;;;;2.57;100.00;100260.03;701136;28;1156;-66
2022/12/08 00:38:31;;;;;;;22.85;15.38;;;;;;;2.57;100.00;100260.03;703314;28;1177;-65
2022/12/08 00:38:53;;;;;;;20.95;14.75;;;;;;;2.56;100.00;100260.84;700367;28;5158;-66
2022/12/08 00:39:15;;;;;;;21.92;14.48;;;;;;;2.57;100.00;100267.78;700157;28;1066;-66
2022/12/08 00:39:35;;;;;;;23.05;14.57;;;;;;;2.55;100.00;100260.00;699065;28;1086;-66
2022/12/08 00:39:56;;;;;;;21.17;14.60;;;;;;;2.56;100.00;100260.84;695928;28;4366;-66
2022/12/08 00:40:16;;;;;;;21.93;14.97;;;;;;;2.56;100.00;100268.59;695991;28;1079;-66
2022/12/08 00:40:36;;;;;;;22.73;15.00;;;;;;;2.53;100.00;100256.53;696545;28;1031;-65
2022/12/08 00:40:57;;;;;;;24.27;15.50;;;;;;;2.53;100.00;100256.53;695677;28;1274;-66
2022/12/08 00:42:10;;;;;;;23.63;15.30;;;;;;;2.51;100.00;100259.91;696551;28;1107;-66
2022/12/08 00:42:13;;;;;;;23.38;15.65;;;;;;;2.46;100.00;100254.63;697873;28;1266;-65
2022/12/08 00:42:33;;;;;;;23.98;15.25;;;;;;;2.44;100.00;100258.00;698695;28;1027;-65
2022/12/08 00:42:54;;;;;;;22.93;15.27;;;;;;;2.44;100.00;100253.75;699221;28;4287;-66
2022/12/08 00:43:14;;;;;;;22.10;15.03;;;;;;;2.45;100.00;100257.19;697653;28;1905;-68
2022/12/08 00:43:34;;;;;;;23.20;15.67;;;;;;;2.45;100.00;100257.19;699131;28;987;-66
2022/12/08 00:43:55;;;;;;;24.40;15.73;;;;;;;2.45;100.00;100252.03;699882;28;1313;-66
2022/12/08 00:44:19;;;;;;;24.38;15.23;;;;;;;2.46;100.00;100259.78;697779;28;1129;-66
2022/12/08 00:44:42;;;;;;;25.73;16.42;;;;;;;2.46;100.00;100253.78;697377;28;1103;-65
2022/12/08 00:45:03;;;;;;;22.55;16.00;;;;;;;2.46;100.00;100253.78;698825;28;1322;-66
2022/12/08 00:45:23;;;;;;;24.40;16.20;;;;;;;2.44;100.00;100256.31;697172;28;1261;-66
2022/12/08 00:45:43;;;;;;;25.57;16.20;;;;;;;2.45;100.00;100255.50;692356;28;1341;-66
2022/12/08 00:46:04;;;;;;;22.23;15.52;;;;;;;2.50;100.00;100250.41;692597;28;4387;-66
2022/12/08 00:46:24;;;;;;;25.03;15.83;;;;;;;2.58;100.00;100248.00;693571;28;1199;-66
2022/12/08 00:46:45;;;;;;;22.63;14.80;;;;;;;2.73;100.00;100243.16;693623;28;1126;-66
2022/12/08 00:47:06;;;;;;;21.60;14.60;;;;;;;2.70;100.00;100248.25;693360;28;1242;-66
2022/12/08 00:47:26;;;;;;;23.73;15.07;;;;;;;2.66;100.00;100249.00;692806;28;995;-65
2022/12/08 00:47:46;;;;;;;22.27;15.07;;;;;;;2.60;100.00;100248.91;697797;28;1114;-65
2022/12/08 00:48:07;;;;;;;22.73;15.30;;;;;;;2.59;100.00;100240.31;696805;28;1018;-66
2022/12/08 00:48:27;;;;;;;21.23;14.57;;;;;;;2.57;100.00;100244.53;696042;28;1510;-66
2022/12/08 00:48:47;;;;;;;20.13;14.37;;;;;;;2.58;100.00;100242.84;696197;28;1123;-66
2022/12/08 00:49:08;;;;;;;21.10;14.37;;;;;;;2.57;100.00;100235.94;695002;28;4630;-66
2022/12/08 00:49:28;;;;;;;22.58;14.95;;;;;;;2.55;100.00;100244.50;696737;28;907;-66
2022/12/08 00:49:48;;;;;;;22.27;14.87;;;;;;;2.53;100.00;100245.31;695643;28;1086;-67
2022/12/08 00:50:09;;;;;;;22.27;15.02;;;;;;;2.53;100.00;100243.63;696023;28;1153;-66
2022/12/08 00:50:30;;;;;;;21.60;14.82;;;;;;;2.53;100.00;100242.72;696800;28;1111;-66
2022/12/08 00:50:50;;;;;;;21.27;14.73;;;;;;;2.56;100.00;100245.38;694314;28;1231;-66
2022/12/08 00:51:10;;;;;;;21.83;14.70;;;;;;;2.52;100.00;100239.28;694128;28;1023;-66
2022/12/08 00:51:31;;;;;;;22.30;15.17;;;;;;;2.50;100.00;100238.38;694423;28;1266;-66
2022/12/08 00:51:52;;;;;;;22.85;14.98;;;;;;;2.72;100.00;100234.53;695144;28;4292;-66
2022/12/08 00:52:12;;;;;;;22.70;14.97;;;;;;;2.82;100.00;100234.72;693305;28;1273;-66
2022/12/08 00:52:33;;;;;;;25.23;15.07;;;;;;;2.76;100.00;100242.38;695546;28;1107;-66
2022/12/08 00:52:53;;;;;;;23.20;14.80;;;;;;;2.74;100.00;100237.13;697023;28;1091;-66
2022/12/08 00:53:13;;;;;;;21.55;14.45;;;;;;;2.78;100.00;100235.50;697645;28;1127;-66
2022/12/08 00:53:33;;;;;;;22.20;14.33;;;;;;;2.74;100.00;100239.72;699208;28;1358;-66
2022/12/08 00:53:54;;;;;;;21.87;14.67;;;;;;;2.72;100.00;100236.25;697869;28;1261;-66
2022/12/08 00:54:15;;;;;;;21.17;14.52;;;;;;;2.67;100.00;100237.84;698258;28;1112;-66
2022/12/08 00:54:35;;;;;;;21.05;14.40;;;;;;;2.68;100.00;100234.44;697646;28;1200;-66
2022/12/08 00:54:55;;;;;;;22.90;14.80;;;;;;;2.69;100.00;100237.06;696451;28;4279;-66
2022/12/08 00:55:16;;;;;;;22.15;14.90;;;;;;;2.68;100.00;100231.88;698374;28;1086;-66
2022/12/08 00:55:36;;;;;;;21.23;14.33;;;;;;;2.66;100.00;100237.00;698066;28;1067;-66
2022/12/08 00:55:57;;;;;;;21.58;14.32;;;;;;;2.64;100.00;100236.09;697594;28;1056;-67
2022/12/08 00:56:17;;;;;;;22.93;14.27;;;;;;;2.63;100.00;100229.22;698232;28;1315;-66
2022/12/08 00:56:38;;;;;;;22.15;14.30;;;;;;;2.62;100.00;100232.63;698161;28;1411;-66
2022/12/08 00:56:58;;;;;;;19.90;14.00;;;;;;;2.61;100.00;100224.84;696267;28;1190;-66
2022/12/08 00:57:18;;;;;;;21.02;14.25;;;;;;;2.62;100.00;100231.75;697130;28;1348;-66
2022/12/08 00:57:39;;;;;;;22.13;14.53;;;;;;;2.65;100.00;100229.22;698004;28;1104;-66
2022/12/08 00:57:59;;;;;;;20.03;14.17;;;;;;;2.65;100.00;100237.84;697456;28;4558;-66
2022/12/08 00:58:19;;;;;;;21.42;14.25;;;;;;;2.61;100.00;100233.44;697347;28;942;-66
2022/12/08 00:58:40;;;;;;;22.63;13.97;;;;;;;2.58;100.00;100233.38;698184;28;1075;-66
2022/12/08 00:59:02;;;;;;;20.95;14.05;;;;;;;2.55;100.00;100234.19;698515;28;1044;-66
2022/12/08 00:59:22;;;;;;;21.83;14.48;;;;;;;2.60;100.00;100236.00;695010;28;1564;-66
2022/12/08 00:59:42;;;;;;;20.67;14.13;;;;;;;2.64;100.00;100236.09;695886;28;1140;-66
2022/12/08 01:00:03;;;;;;;20.60;14.03;;;;;;;2.63;100.00;100229.22;696488;28;1165;-66
2022/12/08 01:00:24;;;;;;;19.17;13.57;;;;;;;2.60;100.00;100233.41;695909;28;1711;-66
2022/12/08 01:00:45;;;;;;;21.50;14.50;;;;;;;2.58;100.00;100233.38;695688;28;1219;-66
2022/12/08 01:01:10;;;;;;;21.77;14.50;;;;;;;2.67;100.00;100233.59;694168;28;4264;-66
2022/12/08 01:01:31;;;;;;;21.85;14.40;;;;;;;2.73;100.00;100227.69;698354;28;895;-66
2022/12/08 01:01:51;;;;;;;21.30;14.25;;;;;;;2.78;100.00;100232.91;697899;28;1025;-66
2022/12/08 01:02:12;;;;;;;18.73;13.83;;;;;;;2.76;100.00;100232.03;695322;28;1345;-66
2022/12/08 01:02:33;;;;;;;19.97;13.73;;;;;;;2.72;100.00;100231.09;695880;28;789;-66
2022/12/08 01:02:53;;;;;;;20.58;13.88;;;;;;;2.68;100.00;100232.72;696652;28;1705;-66
2022/12/08 01:03:13;;;;;;;21.65;14.27;;;;;;;2.67;100.00;100237.84;695808;28;2043;-66
2022/12/08 01:03:34;;;;;;;21.37;14.60;;;;;;;2.67;100.00;100233.59;696547;28;1118;-66
2022/12/08 01:03:54;;;;;;;22.00;14.10;;;;;;;2.72;100.00;100229.38;693639;28;4420;-66
2022/12/08 01:04:17;;;;;;;22.60;14.37;;;;;;;2.70;100.00;100231.06;693943;28;1119;-66
2022/12/08 01:04:37;;;;;;;19.66;13.60;;;;;;;2.71;100.00;100227.66;695200;28;1059;-66
2022/12/08 01:04:57;;;;;;;20.57;13.90;;;;;;;2.70;100.00;100227.59;696749;28;911;-66
2022/12/08 01:05:18;;;;;;;21.75;14.05;;;;;;;2.67;100.00;100227.53;696458;28;1197;-66
2022/12/08 01:05:38;;;;;;;21.97;14.33;;;;;;;2.63;100.00;100231.78;698708;28;1126;-66
2022/12/08 01:06:02;;;;;;;21.47;14.10;;;;;;;2.62;100.00;100229.19;695576;28;943;-66
2022/12/08 01:06:23;;;;;;;18.55;13.77;;;;;;;2.61;100.00;100228.28;695683;28;1026;-66
2022/12/08 01:06:44;;;;;;;19.93;13.90;;;;;;;2.61;100.00;100230.88;695280;28;1296;-65
2022/12/08 01:07:04;;;;;;;21.02;13.98;;;;;;;2.60;100.00;100230.84;692258;28;5250;-66
2022/12/08 01:07:25;;;;;;;19.60;14.20;;;;;;;2.57;100.00;100226.47;691767;28;1387;-66
2022/12/08 01:07:47;;;;;;;20.10;14.00;;;;;;;2.55;100.00;100229.03;694831;28;1496;-66
2022/12/08 01:08:08;;;;;;;21.27;13.98;;;;;;;2.53;100.00;100229.84;695847;28;1205;-66
2022/12/08 01:08:28;;;;;;;21.93;14.10;;;;;;;2.54;100.00;100222.13;696672;28;1103;-66
2022/12/08 01:08:48;;;;;;;20.47;13.80;;;;;;;2.56;100.00;100224.72;695194;28;1122;-66
2022/12/08 01:09:11;;;;;;;20.50;14.07;;;;;;;2.54;100.00;100226.41;696082;28;1151;-66
2022/12/08 01:09:31;;;;;;;20.38;14.43;;;;;;;2.54;100.00;100231.59;695276;28;1068;-66
2022/12/08 01:09:52;;;;;;;21.07;14.40;;;;;;;2.53;100.00;100225.56;694994;28;4452;-66
2022/12/08 01:10:12;;;;;;;21.55;14.07;;;;;;;2.53;100.00;100220.41;694688;28;1162;-66
2022/12/08 01:10:37;;;;;;;20.77;14.60;;;;;;;2.52;100.00;100228.97;695812;28;1467;-66
2022/12/08 01:11:09;;;;;;;20.48;13.65;;;;;;;2.57;100.00;100229.06;695484;28;1261;-66
2022/12/08 01:11:29;;;;;;;21.15;14.32;;;;;;;2.59;100.00;100224.81;693882;28;1052;-66
2022/12/08 01:11:50;;;;;;;23.33;14.30;;;;;;;2.60;100.00;100226.53;695115;28;1096;-66
2022/12/08 01:12:10;;;;;;;21.20;14.10;;;;;;;2.61;100.00;100219.69;694569;28;1123;-67
2022/12/08 01:12:31;;;;;;;22.38;13.85;;;;;;;2.60;100.00;100221.38;695642;28;907;-66
2022/12/08 01:12:51;;;;;;;22.73;13.60;;;;;;;2.59;100.00;100227.41;693801;28;4562;-66
2022/12/08 01:13:11;;;;;;;20.63;14.00;;;;;;;2.56;100.00;100224.72;694722;28;1119;-66
2022/12/08 01:13:32;;;;;;;20.67;14.37;;;;;;;2.52;100.00;100228.09;695105;28;1126;-66
2022/12/08 01:13:53;;;;;;;21.90;13.85;;;;;;;2.50;100.00;100227.19;694563;28;1131;-66
2022/12/08 01:14:13;;;;;;;20.90;13.52;;;;;;;2.49;100.00;100228.91;694751;28;1545;-65
2022/12/08 01:14:36;;;;;;;21.13;14.07;;;;;;;2.48;100.00;100226.28;696929;28;1068;-66
2022/12/08 01:14:56;;;;;;;22.35;14.65;;;;;;;2.48;100.00;100226.28;695514;28;1182;-66
2022/12/08 01:15:16;;;;;;;20.67;14.07;;;;;;;2.47;100.00;100230.56;696080;28;1130;-66
2022/12/08 01:15:37;;;;;;;22.02;14.40;;;;;;;2.47;100.00;100224.56;694281;28;1386;-66
2022/12/08 01:15:57;;;;;;;20.57;14.60;;;;;;;2.46;100.00;100227.97;692639;28;4637;-66
2022/12/08 01:16:21;;;;;;;22.20;14.63;;;;;;;2.45;100.00;100231.38;693112;28;3464;-66
2022/12/08 01:16:41;;;;;;;23.95;14.35;;;;;;;2.42;100.00;100221.84;693717;28;1134;-66
2022/12/08 01:17:02;;;;;;;21.42;14.10;;;;;;;2.43;100.00;100225.34;693251;28;1095;-66
2022/12/08 01:17:22;;;;;;;21.30;14.55;;;;;;;2.43;100.00;100220.16;693920;28;1143;-66
2022/12/08 01:17:43;;;;;;;21.17;14.13;;;;;;;2.42;100.00;100229.59;694594;28;1096;-66
2022/12/08 01:18:03;;;;;;;23.00;14.73;;;;;;;2.42;100.00;100221.00;695294;28;1126;-66
2022/12/08 01:18:23;;;;;;;24.42;14.23;;;;;;;2.40;100.00;100223.56;694745;28;1160;-66
2022/12/08 01:18:44;;;;;;;22.43;14.40;;;;;;;2.40;100.00;100227.84;694175;28;1269;-66
2022/12/08 01:19:04;;;;;;;23.45;15.63;;;;;;;2.36;100.00;100222.59;696196;28;4390;-66
2022/12/08 01:19:24;;;;;;;22.23;15.03;;;;;;;2.36;100.00;100226.91;697877;28;1475;-66
2022/12/08 01:19:45;;;;;;;21.77;14.33;;;;;;;2.34;100.00;100224.28;698881;28;1352;-66
2022/12/08 01:20:06;;;;;;;21.53;14.00;;;;;;;2.33;100.00;100225.13;698217;28;1234;-66
2022/12/08 01:20:26;;;;;;;21.80;14.70;;;;;;;2.33;100.00;100224.25;698388;28;1043;-66
2022/12/08 01:20:46;;;;;;;24.37;14.77;;;;;;;2.33;100.00;100226.84;697713;28;1200;-66
2022/12/08 01:21:07;;;;;;;24.52;14.45;;;;;;;2.32;100.00;100225.09;698548;28;1216;-66
2022/12/08 01:21:28;;;;;;;23.17;14.60;;;;;;;2.33;100.00;100229.44;699226;28;1067;-66
2022/12/08 01:21:48;;;;;;;21.50;15.18;;;;;;;2.33;100.00;100232.88;697443;28;1036;-66
2022/12/08 01:22:08;;;;;;;24.20;15.70;;;;;;;2.35;100.00;100226.03;698465;28;5349;-66
2022/12/08 01:22:29;;;;;;;22.63;14.90;;;;;;;2.36;100.00;100222.59;700064;28;1205;-66
2022/12/08 01:22:49;;;;;;;20.92;14.27;;;;;;;2.38;100.00;100226.09;697784;28;1065;-66
2022/12/08 01:23:10;;;;;;;20.93;13.83;;;;;;;2.38;100.00;100226.09;697866;28;1957;-66
2022/12/08 01:23:30;;;;;;;20.23;13.93;;;;;;;2.41;100.00;100227.00;698098;28;1209;-66
2022/12/08 01:23:51;;;;;;;20.90;13.93;;;;;;;2.40;100.00;100228.72;701560;28;1199;-66
2022/12/08 01:24:13;;;;;;;20.38;14.18;;;;;;;2.40;100.00;100233.88;701040;28;1135;-66
2022/12/08 01:24:34;;;;;;;21.48;14.50;;;;;;;2.42;100.00;100236.47;701066;28;1370;-66
2022/12/08 01:24:54;;;;;;;22.55;14.30;;;;;;;2.41;100.00;100229.56;697679;28;4563;-66
2022/12/08 01:25:14;;;;;;;23.63;14.23;;;;;;;2.38;100.00;100233.84;698583;28;1063;-66
2022/12/08 01:25:35;;;;;;;22.67;14.25;;;;;;;2.39;100.00;100232.13;699374;28;1272;-66
2022/12/08 01:26:00;;;;;;;21.40;14.30;;;;;;;2.43;100.00;100230.50;696456;28;1161;-66
2022/12/08 01:26:21;;;;;;;21.92;14.15;;;;;;;2.47;100.00;100238.31;694784;28;1443;-66
2022/12/08 01:26:42;;;;;;;22.63;14.73;;;;;;;2.47;100.00;100225.41;694731;28;1186;-66
2022/12/08 01:27:02;;;;;;;23.08;15.00;;;;;;;2.51;100.00;100231.53;694098;28;1055;-66
2022/12/08 01:27:23;;;;;;;21.70;15.02;;;;;;;2.54;100.00;100236.75;693016;28;992;-66
2022/12/08 01:27:43;;;;;;;22.23;14.63;;;;;;;2.52;100.00;100228.97;693245;28;1203;-66
2022/12/08 01:28:03;;;;;;;23.13;14.85;;;;;;;2.50;100.00;100233.22;693737;28;4296;-66
2022/12/08 01:28:24;;;;;;;22.83;14.67;;;;;;;2.51;100.00;100231.53;693842;28;1171;-65
2022/12/08 01:28:45;;;;;;;23.08;14.35;;;;;;;2.48;100.00;100237.50;693668;28;921;-66
2022/12/08 01:29:06;;;;;;;22.35;14.43;;;;;;;2.47;100.00;100229.72;694361;28;1454;-65
2022/12/08 01:29:26;;;;;;;23.17;14.43;;;;;;;2.45;100.00;100232.28;695056;28;1395;-66
2022/12/08 01:29:47;;;;;;;22.03;14.33;;;;;;;2.44;100.00;100232.22;698249;28;1047;-66
2022/12/08 01:30:08;;;;;;;22.77;14.95;;;;;;;2.43;100.00;100235.66;697654;28;1078;-66
2022/12/08 01:30:28;;;;;;;23.35;14.95;;;;;;;2.42;100.00;100233.91;697326;28;1110;-66
2022/12/08 01:30:49;;;;;;;21.13;14.67;;;;;;;2.40;100.00;100238.19;697915;28;1050;-66
2022/12/08 01:31:16;;;;;;;25.13;14.73;;;;;;;2.41;100.00;100230.47;696939;28;4524;-66
2022/12/08 01:31:36;;;;;;;23.75;14.55;;;;;;;2.41;100.00;100234.72;694163;28;1404;-65
2022/12/08 01:31:57;;;;;;;22.73;14.73;;;;;;;2.38;100.00;100226.09;694274;28;1162;-66
2022/12/08 01:32:17;;;;;;;24.47;14.43;;;;;;;2.37;100.00;100229.50;695678;28;1020;-65
2022/12/08 01:32:37;;;;;;;23.20;14.95;;;;;;;2.37;100.00;100228.66;694564;28;1170;-66
2022/12/08 01:32:58;;;;;;;21.87;14.80;;;;;;;2.38;100.00;100232.94;696020;28;1260;-66
2022/12/08 01:33:18;;;;;;;19.85;14.35;;;;;;;2.38;100.00;100238.09;695847;28;1232;-66
2022/12/08 01:33:40;;;;;;;21.10;14.47;;;;;;;2.37;100.00;100232.09;695371;28;1632;-66
2022/12/08 01:34:00;;;;;;;23.08;15.15;;;;;;;2.37;100.00;100232.09;695274;28;4284;-66
2022/12/08 01:34:20;;;;;;;22.83;14.77;;;;;;;2.38;100.00;100235.53;695582;28;932;-66
2022/12/08 01:34:41;;;;;;;22.90;15.10;;;;;;;2.37;100.00;100232.09;696132;28;1022;-66
2022/12/08 01:35:02;;;;;;;24.85;15.85;;;;;;;2.37;100.00;100234.66;696260;28;1075;-66
2022/12/08 01:35:22;;;;;;;26.15;15.70;;;;;;;2.36;100.00;100238.09;697734;28;965;-66
2022/12/08 01:35:43;;;;;;;25.47;16.10;;;;;;;2.36;100.00;100234.66;697429;28;1967;-66
2022/12/08 01:36:04;;;;;;;24.90;16.27;;;;;;;2.36;100.00;100235.50;697931;28;1295;-66
2022/12/08 01:36:27;;;;;;;25.98;15.85;;;;;;;2.35;100.00;100235.47;696526;28;1157;-66
2022/12/08 01:36:47;;;;;;;25.20;16.20;;;;;;;2.35;100.00;100231.19;699487;28;1127;-66
2022/12/08 01:37:07;;;;;;;23.23;16.00;;;;;;;2.35;100.00;100231.19;696449;28;4357;-66
2022/12/08 01:37:28;;;;;;;21.43;15.23;;;;;;;2.35;100.00;100233.78;697835;28;1250;-65
2022/12/08 01:37:49;;;;;;;22.88;15.63;;;;;;;2.33;100.00;100230.28;698663;28;1029;-66
2022/12/08 01:38:10;;;;;;;27.25;17.02;;;;;;;2.35;100.00;100232.91;697864;28;1138;-66
2022/12/08 01:38:31;;;;;;;27.93;17.40;;;;;;;2.35;100.00;100236.38;698563;28;1119;-66
2022/12/08 01:38:52;;;;;;;24.35;16.23;;;;;;;2.35;100.00;100231.19;696826;28;5194;-66
2022/12/08 01:39:16;;;;;;;23.92;16.10;;;;;;;2.35;100.00;100228.63;699075;28;1075;-66
2022/12/08 01:39:36;;;;;;;24.92;15.73;;;;;;;2.35;100.00;100231.19;698595;28;1150;-66
2022/12/08 01:39:57;;;;;;;25.53;16.10;;;;;;;2.36;100.00;100230.34;697917;28;4373;-70
2022/12/08 01:40:17;;;;;;;25.25;16.17;;;;;;;2.34;100.00;100232.03;697295;28;998;-66
2022/12/08 01:40:38;;;;;;;26.17;16.80;;;;;;;2.32;100.00;100231.13;698248;28;1102;-66
2022/12/08 01:40:58;;;;;;;27.23;16.90;;;;;;;2.33;100.00;100232.00;697948;28;1114;-66
2022/12/08 01:41:21;;;;;;;26.27;15.90;;;;;;;2.33;100.00;100230.28;696313;28;1121;-66
2022/12/08 01:41:42;;;;;;;25.30;16.17;;;;;;;2.34;100.00;100232.03;696231;28;1064;-66
2022/12/08 01:42:03;;;;;;;26.10;17.20;;;;;;;2.35;100.00;100231.19;697102;28;1256;-66
2022/12/08 01:42:23;;;;;;;27.97;17.33;;;;;;;2.36;100.00;100232.06;695669;28;1151;-66
2022/12/08 01:42:44;;;;;;;26.17;15.85;;;;;;;2.36;100.00;100226.91;696223;28;1423;-65
2022/12/08 01:43:04;;;;;;;26.88;15.43;;;;;;;2.36;100.00;100232.91;695854;28;4356;-68